Crystal Falls, Michigan
Current Conditions -  °F | °C
As of 3:01 PM on Monday 22 Dec 2014 (Local Time) from KIMT Reporting Station
Haze Haze  
Wind Chill: 26°   Ceiling: 600
Heat Index: 34°   Visibility: 3mi
Dew Point: 31°   Wind: 10mph
Humidity: 89%   Direction: 130°SE
Pressure: 29.82"   Gusts: NA
Location:  46.1°N, 88.33°W
Report Text: KIMT 222101Z AUTO 13009KT 3SM BR OVC006 01/M01 A2982 RMK AO2 CIG 005V011 T00111006
Loading
Personal Weather Stations






























Interactive Weather Map New forecast layout! Learn more

10-Day Weather Forecast

Advertisements
Track Severe Weather on mobile